Terminal Aerodrome Forecast
Issued by NWS Billings, MT

Home | Current Version | Previous Version | Text Only | Print | Product List | Glossary On
Versions: 1 2 3 4 5 6 7 8 9 10 11 12 13 14 15 16 17 18
000
FTUS45 KBYZ 181729
TAFBIL
TAF
KBIL 181729Z 1818/1918 18011KT P6SM FEW100 SCT200
     FM182000 22011G20KT P6SM FEW200
     FM182230 26020G25KT P6SM FEW200
     FM190200 24011KT P6SM SCT150=

USA.gov is the U.S. government's official web portal to all federal, state and local government web resources and services.